Time,TemperatureF,DewpointF,PressureIn,WindDirection,WindDirectionDegrees,WindSpeedMPH,WindSpeedGustMPH,Humidity,HourlyPrecipIn,Conditions,Clouds,dailyrainin,SolarRadiationWatts/m^2,SoftwareType,DateUTC
2013-09-05 00:04:00,57.0,52.9,30.18,ENE,67,0.0,0.0,86,0.00,RA,,0.00,0.0,WeatherDisplay:10.37,2013-09-04 22:04:00,
2013-09-05 00:10:00,56.8,52.7,30.18,ENE,67,0.0,0.0,86,0.00,RA,,0.00,0.0,WeatherDisplay:10.37,2013-09-04 22:10:00,
2013-09-05 00:16:00,56.7,52.6,30.18,ENE,68,0.0,0.0,86,0.00,CLR,,0.00,0.0,WeatherDisplay:10.37,2013-09-04 22:16:00,
2013-09-05 00:21:00,56.6,52.5,30.18,ENE,67,0.0,0.0,86,0.00,CLR,,0.00,0.0,WeatherDisplay:10.37,2013-09-04 22:21:00,
2013-09-05 00:26:00,56.5,52.4,30.18,ENE,68,0.0,0.0,86,0.00,CLR,,0.00,0.0,WeatherDisplay:10.37,2013-09-04 22:26:00,
2013-09-05 00:31:00,56.3,52.2,30.19,ENE,67,1.2,0.0,86,0.00,CLR,,0.00,0.0,WeatherDisplay:10.37,2013-09-04 22:31:00,
2013-09-05 00:36:00,56.2,52.1,30.19,ENE,67,0.0,0.0,86,0.00,CLR,,0.00,0.0,WeatherDisplay:10.37,2013-09-04 22:36:00,
2013-09-05 00:41:00,56.1,52.0,30.19,ENE,68,0.0,0.0,86,0.00,CLR,,0.00,0.0,WeatherDisplay:10.37,2013-09-04 22:41:00,
2013-09-05 00:46:00,56.0,51.9,30.19,ENE,67,0.0,0.0,86,0.00,CLR,,0.00,0.0,WeatherDisplay:10.37,2013-09-04 22:46:00,
2013-09-05 00:51:00,55.9,51.8,30.19,ENE,68,0.0,0.0,86,0.00,CLR,,0.00,0.0,WeatherDisplay:10.37,2013-09-04 22:51:00,
2013-09-05 00:56:00,55.8,51.7,30.18,ENE,68,0.0,0.0,86,0.00,CLR,,0.00,0.0,WeatherDisplay:10.37,2013-09-04 22:56:00,
2013-09-05 01:01:00,55.7,51.6,30.18,ENE,68,0.0,0.0,86,0.00,CLR,,0.00,0.0,WeatherDisplay:10.37,2013-09-04 23:01:00,
2013-09-05 01:06:00,55.6,51.5,30.18,ENE,67,0.0,0.0,86,0.00,CLR,,0.00,0.0,WeatherDisplay:10.37,2013-09-04 23:06:00,
2013-09-05 01:11:00,55.5,51.4,30.18,ENE,67,0.0,0.0,86,0.00,CLR,,0.00,0.0,WeatherDisplay:10.37,2013-09-04 23:11:00,
2013-09-05 01:16:00,55.4,51.3,30.18,ENE,68,2.3,2.3,86,0.00,CLR,,0.00,0.0,WeatherDisplay:10.37,2013-09-04 23:16:00,
2013-09-05 01:21:00,55.3,51.2,30.18,ENE,68,0.0,0.0,86,0.00,CLR,,0.00,0.0,WeatherDisplay:10.37,2013-09-04 23:21:00,
2013-09-05 01:26:00,55.3,51.2,30.18,ENE,67,0.0,0.0,86,0.00,CLR,,0.00,0.0,WeatherDisplay:10.37,2013-09-04 23:26:00,
2013-09-05 01:31:00,55.1,51.0,30.18,ENE,67,0.0,0.0,86,0.00,CLR,,0.00,0.0,WeatherDisplay:10.37,2013-09-04 23:31:00,
2013-09-05 01:36:00,55.0,50.9,30.18,ENE,68,0.0,0.0,86,0.00,CLR,,0.00,0.0,WeatherDisplay:10.37,2013-09-04 23:36:00,
2013-09-05 01:41:00,54.9,50.5,30.18,ENE,67,0.0,0.0,85,0.00,CLR,,0.00,0.0,WeatherDisplay:10.37,2013-09-04 23:41:00,
2013-09-05 01:46:00,54.8,50.4,30.18,ENE,68,0.0,0.0,85,0.00,CLR,,0.00,0.0,WeatherDisplay:10.37,2013-09-04 23:46:00,
2013-09-05 01:51:00,54.7,50.3,30.18,ENE,68,0.0,0.0,85,0.00,CLR,,0.00,0.0,WeatherDisplay:10.37,2013-09-04 23:51:00,
2013-09-05 01:56:00,54.7,50.3,30.17,ENE,67,0.0,0.0,85,0.00,CLR,,0.00,0.0,WeatherDisplay:10.37,2013-09-04 23:56:00,
2013-09-05 02:01:00,54.6,50.2,30.17,ENE,67,0.0,0.0,85,0.00,CLR,,0.00,0.0,WeatherDisplay:10.37,2013-09-05 00:01:00,
2013-09-05 02:06:00,54.6,50.2,30.17,ENE,68,0.0,0.0,85,0.00,CLR,,0.00,0.0,WeatherDisplay:10.37,2013-09-05 00:06:00,
2013-09-05 02:11:00,54.6,50.2,30.17,ENE,67,0.0,0.0,85,0.00,CLR,,0.00,0.0,WeatherDisplay:10.37,2013-09-05 00:11:00,
2013-09-05 02:16:00,54.5,50.1,30.17,ENE,67,0.0,0.0,85,0.00,CLR,,0.00,0.0,WeatherDisplay:10.37,2013-09-05 00:16:00,
2013-09-05 02:21:00,54.4,50.0,30.17,ENE,68,0.0,0.0,85,0.00,CLR,,0.00,0.0,WeatherDisplay:10.37,2013-09-05 00:21:00,
2013-09-05 02:26:00,54.4,50.0,30.17,ENE,67,0.0,0.0,85,0.00,CLR,,0.00,0.0,WeatherDisplay:10.37,2013-09-05 00:26:00,
2013-09-05 02:31:00,54.4,50.0,30.17,ENE,67,0.0,0.0,85,0.00,CLR,,0.00,0.0,WeatherDisplay:10.37,2013-09-05 00:31:00,
2013-09-05 02:36:00,54.3,49.9,30.17,ENE,67,0.0,0.0,85,0.00,CLR,,0.00,0.0,WeatherDisplay:10.37,2013-09-05 00:36:00,
2013-09-05 02:41:00,54.2,49.8,30.17,ENE,68,0.0,0.0,85,0.00,CLR,,0.00,0.0,WeatherDisplay:10.37,2013-09-05 00:41:00,
2013-09-05 02:46:00,54.1,49.7,30.17,ENE,67,0.0,0.0,85,0.00,CLR,,0.00,0.0,WeatherDisplay:10.37,2013-09-05 00:46:00,
2013-09-05 02:51:00,54.0,49.6,30.17,ENE,68,0.0,0.0,85,0.00,CLR,,0.00,0.0,WeatherDisplay:10.37,2013-09-05 00:51:00,
2013-09-05 02:56:00,54.0,49.6,30.17,ENE,67,0.0,0.0,85,0.00,CLR,,0.00,0.0,WeatherDisplay:10.37,2013-09-05 00:56:00,
2013-09-05 03:01:00,53.8,49.4,30.17,ENE,68,0.0,0.0,85,0.00,CLR,,0.00,0.0,WeatherDisplay:10.37,2013-09-05 01:01:00,
2013-09-05 03:06:00,53.7,49.3,30.17,ENE,68,0.0,0.0,85,0.00,CLR,,0.00,0.0,WeatherDisplay:10.37,2013-09-05 01:06:00,
2013-09-05 03:11:00,53.7,49.3,30.17,ENE,67,0.0,0.0,85,0.00,CLR,,0.00,0.0,WeatherDisplay:10.37,2013-09-05 01:11:00,
2013-09-05 03:16:00,53.7,49.3,30.17,ENE,68,0.0,0.0,85,0.00,CLR,,0.00,0.0,WeatherDisplay:10.37,2013-09-05 01:16:00,
2013-09-05 03:21:00,53.6,49.2,30.17,ENE,68,0.0,0.0,85,0.00,CLR,,0.00,0.0,WeatherDisplay:10.37,2013-09-05 01:21:00,
2013-09-05 03:26:00,53.6,49.2,30.17,ENE,67,0.0,0.0,85,0.00,CLR,,0.00,0.0,WeatherDisplay:10.37,2013-09-05 01:26:00,
2013-09-05 03:31:00,53.5,49.1,30.17,ENE,68,0.0,0.0,85,0.00,CLR,,0.00,0.0,WeatherDisplay:10.37,2013-09-05 01:31:00,
2013-09-05 03:36:00,53.5,49.1,30.17,ENE,67,0.0,0.0,85,0.00,CLR,,0.00,0.0,WeatherDisplay:10.37,2013-09-05 01:36:00,
2013-09-05 03:41:00,53.5,49.1,30.17,ENE,67,0.0,0.0,85,0.00,CLR,,0.00,0.0,WeatherDisplay:10.37,2013-09-05 01:41:00,
2013-09-05 03:46:00,53.5,49.1,30.17,ENE,67,0.0,0.0,85,0.00,CLR,,0.00,0.0,WeatherDisplay:10.37,2013-09-05 01:46:00,
2013-09-05 03:51:00,53.5,49.1,30.17,ENE,67,0.0,0.0,85,0.00,CLR,,0.00,0.0,WeatherDisplay:10.37,2013-09-05 01:51:00,
2013-09-05 03:56:00,53.5,49.1,30.17,ENE,67,0.0,0.0,85,0.00,CLR,,0.00,0.0,WeatherDisplay:10.37,2013-09-05 01:56:00,
2013-09-05 04:01:00,53.5,49.1,30.16,ENE,68,0.0,0.0,85,0.00,CLR,,0.00,0.0,WeatherDisplay:10.37,2013-09-05 02:01:00,
2013-09-05 04:06:00,53.4,49.0,30.16,ENE,67,0.0,0.0,85,0.00,CLR,,0.00,0.0,WeatherDisplay:10.37,2013-09-05 02:06:00,
2013-09-05 04:11:00,53.4,49.0,30.16,ENE,67,0.0,0.0,85,0.00,CLR,,0.00,0.0,WeatherDisplay:10.37,2013-09-05 02:11:00,
2013-09-05 04:16:00,53.4,49.0,30.16,ENE,68,0.0,0.0,85,0.00,CLR,,0.00,0.0,WeatherDisplay:10.37,2013-09-05 02:16:00,
2013-09-05 04:21:00,53.4,49.0,30.16,ENE,67,0.0,0.0,85,0.00,CLR,,0.00,0.0,WeatherDisplay:10.37,2013-09-05 02:21:00,
2013-09-05 04:26:00,53.4,49.0,30.16,ENE,67,0.0,0.0,85,0.00,CLR,,0.00,0.0,WeatherDisplay:10.37,2013-09-05 02:26:00,
2013-09-05 04:31:00,53.4,49.0,30.16,ENE,67,0.0,0.0,85,0.00,CLR,,0.00,0.0,WeatherDisplay:10.37,2013-09-05 02:31:00,
2013-09-05 04:36:00,53.4,49.0,30.16,ENE,68,0.0,0.0,85,0.00,CLR,,0.00,0.0,WeatherDisplay:10.37,2013-09-05 02:36:00,
2013-09-05 04:41:00,53.4,49.0,30.16,ENE,67,0.0,0.0,85,0.00,CLR,,0.00,0.0,WeatherDisplay:10.37,2013-09-05 02:41:00,
2013-09-05 04:46:00,53.4,49.0,30.16,ENE,68,0.0,0.0,85,0.00,CLR,,0.00,0.0,WeatherDisplay:10.37,2013-09-05 02:46:00,
2013-09-05 04:51:00,53.5,48.8,30.16,ENE,68,0.0,0.0,84,0.00,CLR,,0.00,0.0,WeatherDisplay:10.37,2013-09-05 02:51:00,
2013-09-05 04:56:00,53.5,48.8,30.15,ENE,68,0.0,0.0,84,0.00,CLR,,0.00,0.0,WeatherDisplay:10.37,2013-09-05 02:56:00,
2013-09-05 05:01:00,53.5,48.8,30.15,ENE,67,0.0,0.0,84,0.00,CLR,,0.00,0.0,WeatherDisplay:10.37,2013-09-05 03:01:00,
2013-09-05 05:06:00,53.5,48.8,30.15,ENE,67,0.0,0.0,84,0.00,CLR,,0.00,0.0,WeatherDisplay:10.37,2013-09-05 03:06:00,
2013-09-05 05:11:00,53.6,48.9,30.15,ENE,67,0.0,0.0,84,0.00,CLR,,0.00,0.0,WeatherDisplay:10.37,2013-09-05 03:11:00,
2013-09-05 05:16:00,53.6,48.9,30.15,ENE,68,0.0,0.0,84,0.00,CLR,,0.00,0.0,WeatherDisplay:10.37,2013-09-05 03:16:00,
2013-09-05 05:21:00,53.7,49.0,30.15,ENE,68,0.0,0.0,84,0.00,CLR,,0.00,0.0,WeatherDisplay:10.37,2013-09-05 03:21:00,
2013-09-05 05:26:00,53.7,49.0,30.15,ENE,68,0.0,0.0,84,0.00,CLR,,0.00,0.0,WeatherDisplay:10.37,2013-09-05 03:26:00,
2013-09-05 05:31:00,53.8,49.1,30.15,ENE,68,0.0,0.0,84,0.00,CLR,,0.00,0.0,WeatherDisplay:10.37,2013-09-05 03:31:00,
2013-09-05 05:36:00,53.7,49.0,30.15,ENE,67,0.0,0.0,84,0.00,CLR,,0.00,0.0,WeatherDisplay:10.37,2013-09-05 03:36:00,
2013-09-05 05:41:00,53.8,49.1,30.15,ENE,67,0.0,0.0,84,0.00,CLR,,0.00,0.0,WeatherDisplay:10.37,2013-09-05 03:41:00,
2013-09-05 05:46:00,53.8,49.1,30.15,ENE,68,0.0,0.0,84,0.00,CLR,,0.00,0.0,WeatherDisplay:10.37,2013-09-05 03:46:00,
2013-09-05 05:51:00,53.8,49.1,30.15,ENE,68,0.0,0.0,84,0.00,CLR,,0.00,0.0,WeatherDisplay:10.37,2013-09-05 03:51:00,
2013-09-05 05:56:00,53.8,49.1,30.15,ENE,68,0.0,0.0,84,0.00,CLR,,0.00,0.0,WeatherDisplay:10.37,2013-09-05 03:56:00,
2013-09-05 06:01:00,53.8,49.1,30.15,ENE,67,0.0,0.0,84,0.00,OVC,,0.00,0.0,WeatherDisplay:10.37,2013-09-05 04:01:00,
2013-09-05 06:02:00,53.8,49.1,30.15,ENE,68,0.0,0.0,84,0.00,OVC,,0.00,0.0,WeatherDisplay:10.37,2013-09-05 04:02:00,
2013-09-05 06:03:00,53.8,49.1,30.15,ENE,68,0.0,0.0,84,0.00,OVC,,0.00,0.0,WeatherDisplay:10.37,2013-09-05 04:03:00,
2013-09-05 06:05:00,53.8,49.1,30.15,ENE,67,0.0,0.0,84,0.00,OVC,,0.00,0.0,WeatherDisplay:10.37,2013-09-05 04:05:00,
2013-09-05 06:06:00,53.8,49.1,30.15,ENE,67,0.0,0.0,84,0.00,OVC,,0.00,0.0,WeatherDisplay:10.37,2013-09-05 04:06:00,
2013-09-05 06:11:00,53.9,49.2,30.15,ENE,67,0.0,0.0,84,0.00,OVC,,0.00,0.0,WeatherDisplay:10.37,2013-09-05 04:11:00,
2013-09-05 06:16:00,53.9,49.2,30.15,ENE,67,0.0,0.0,84,0.00,OVC,,0.00,0.0,WeatherDisplay:10.37,2013-09-05 04:16:00,
2013-09-05 06:21:00,53.9,49.2,30.15,ENE,68,0.0,0.0,84,0.00,OVC,,0.00,0.0,WeatherDisplay:10.37,2013-09-05 04:21:00,
2013-09-05 06:23:00,54.0,49.3,30.15,ENE,68,0.0,0.0,84,0.00,OVC,,0.00,0.0,WeatherDisplay:10.37,2013-09-05 04:23:00,
2013-09-05 06:28:00,54.0,49.3,30.15,ENE,68,0.0,0.0,84,0.00,OVC,,0.00,0.0,WeatherDisplay:10.37,2013-09-05 04:28:00,
2013-09-05 06:33:00,54.0,49.3,30.15,ENE,67,0.0,0.0,84,0.00,OVC,,0.00,5.0,WeatherDisplay:10.37,2013-09-05 04:33:00,
2013-09-05 06:38:00,54.1,49.4,30.15,ENE,68,0.0,0.0,84,0.00,OVC,,0.00,7.0,WeatherDisplay:10.37,2013-09-05 04:38:00,
2013-09-05 06:43:00,54.1,49.4,30.15,ENE,68,0.0,0.0,84,0.00,OVC,,0.00,9.0,WeatherDisplay:10.37,2013-09-05 04:43:00,
2013-09-05 06:48:00,54.1,49.4,30.15,ENE,68,0.0,0.0,84,0.00,OVC,,0.00,12.0,WeatherDisplay:10.37,2013-09-05 04:48:00,
2013-09-05 06:53:00,54.2,49.5,30.15,ENE,68,0.0,0.0,84,0.01,RA,,0.01,16.0,WeatherDisplay:10.37,2013-09-05 04:53:00,
2013-09-05 06:58:00,54.3,49.6,30.15,ENE,68,0.0,0.0,84,0.01,RA,,0.01,21.0,WeatherDisplay:10.37,2013-09-05 04:58:00,
2013-09-05 07:03:00,54.3,49.6,30.15,ENE,67,0.0,0.0,84,0.01,OVC,,0.01,26.0,WeatherDisplay:10.37,2013-09-05 05:03:00,
2013-09-05 07:08:00,54.3,49.6,30.15,ENE,67,0.0,0.0,84,0.01,OVC,,0.01,32.0,WeatherDisplay:10.37,2013-09-05 05:08:00,
2013-09-05 07:13:00,54.4,49.7,30.15,East,82,0.0,0.0,84,0.01,OVC,,0.01,39.0,WeatherDisplay:10.37,2013-09-05 05:13:00,
2013-09-05 07:18:00,54.4,49.7,30.15,East,82,0.0,0.0,84,0.01,OVC,,0.01,42.0,WeatherDisplay:10.37,2013-09-05 05:18:00,
2013-09-05 07:23:00,54.5,49.8,30.15,East,82,0.0,0.0,84,0.01,OVC,,0.01,53.0,WeatherDisplay:10.37,2013-09-05 05:23:00,
2013-09-05 07:28:00,54.5,49.8,30.15,East,82,0.0,0.0,84,0.01,OVC,,0.01,60.0,WeatherDisplay:10.37,2013-09-05 05:28:00,
2013-09-05 07:33:00,54.7,50.0,30.15,East,81,0.0,0.0,84,0.01,SCT,,0.01,105.0,WeatherDisplay:10.37,2013-09-05 05:33:00,
2013-09-05 07:38:00,54.9,50.2,30.14,East,82,0.0,0.0,84,0.01,BKN,,0.01,90.0,WeatherDisplay:10.37,2013-09-05 05:38:00,
2013-09-05 07:43:00,55.1,50.4,30.14,East,82,0.0,0.0,84,0.01,SCT,,0.01,104.0,WeatherDisplay:10.37,2013-09-05 05:43:00,
2013-09-05 07:48:00,55.4,50.6,30.14,East,81,0.0,0.0,84,0.01,BKN,,0.01,97.0,WeatherDisplay:10.37,2013-09-05 05:48:00,
2013-09-05 07:53:00,55.6,50.5,30.14,East,82,0.0,0.0,83,0.00,BKN,,0.01,109.0,WeatherDisplay:10.37,2013-09-05 05:53:00,
2013-09-05 07:58:00,55.9,50.8,30.15,East,81,0.0,0.0,83,0.00,OVC,,0.01,93.0,WeatherDisplay:10.37,2013-09-05 05:58:00,
2013-09-05 08:03:00,56.1,51.0,30.15,East,82,0.0,0.0,83,0.00,BKN,,0.01,132.0,WeatherDisplay:10.37,2013-09-05 06:03:00,
2013-09-05 08:08:00,56.3,51.2,30.15,East,82,0.0,0.0,83,0.00,SCT,,0.01,188.0,WeatherDisplay:10.37,2013-09-05 06:08:00,
2013-09-05 08:13:00,57.4,52.3,30.15,East,81,0.0,0.0,83,0.00,OVC,,0.01,100.0,WeatherDisplay:10.37,2013-09-05 06:13:00,
2013-09-05 08:18:00,57.4,52.6,30.15,East,81,0.0,0.0,84,0.00,OVC,,0.01,93.0,WeatherDisplay:10.37,2013-09-05 06:18:00,
2013-09-05 08:23:00,57.5,52.7,30.15,East,81,0.0,0.0,84,0.00,OVC,,0.01,97.0,WeatherDisplay:10.37,2013-09-05 06:23:00,
2013-09-05 08:28:00,57.7,52.9,30.15,East,81,0.0,0.0,84,0.00,OVC,,0.01,114.0,WeatherDisplay:10.37,2013-09-05 06:28:00,
2013-09-05 08:33:00,58.0,53.2,30.15,East,81,0.0,0.0,84,0.00,SCT,,0.01,214.0,WeatherDisplay:10.37,2013-09-05 06:33:00,
2013-09-05 08:38:00,59.0,54.5,30.15,East,81,0.0,0.0,85,0.00,SCT,,0.01,197.0,WeatherDisplay:10.37,2013-09-05 06:38:00,
2013-09-05 08:43:00,59.0,54.8,30.15,East,81,0.0,0.0,86,0.00,SCT,,0.01,260.0,WeatherDisplay:10.37,2013-09-05 06:43:00,
2013-09-05 08:48:00,59.6,55.4,30.15,East,81,0.0,0.0,86,0.00,SCT,,0.01,285.0,WeatherDisplay:10.37,2013-09-05 06:48:00,
2013-09-05 08:53:00,61.3,57.1,30.15,East,81,0.0,0.0,86,0.00,SCT,,0.01,306.0,WeatherDisplay:10.37,2013-09-05 06:53:00,
2013-09-05 08:58:00,61.5,56.9,30.15,East,81,0.0,0.0,85,0.00,SCT,,0.01,334.0,WeatherDisplay:10.37,2013-09-05 06:58:00,
2013-09-05 09:03:00,62.4,57.8,30.15,East,81,0.0,0.0,85,0.00,FEW,,0.01,359.0,WeatherDisplay:10.37,2013-09-05 07:03:00,
2013-09-05 09:08:00,63.5,58.2,30.15,East,80,0.0,0.0,83,0.00,FEW,,0.01,381.0,WeatherDisplay:10.37,2013-09-05 07:08:00,
2013-09-05 09:13:00,63.7,58.8,30.15,East,82,0.0,0.0,84,0.00,FEW,,0.01,378.0,WeatherDisplay:10.37,2013-09-05 07:13:00,
2013-09-05 09:18:00,64.2,58.9,30.15,East,81,0.0,0.0,83,0.00,FEW,,0.01,417.0,WeatherDisplay:10.37,2013-09-05 07:18:00,
2013-09-05 09:23:00,64.5,58.5,30.15,East,81,0.0,0.0,81,0.00,SCT,,0.01,406.0,WeatherDisplay:10.37,2013-09-05 07:23:00,
2013-09-05 09:28:00,63.4,57.8,30.15,East,81,0.0,0.0,82,0.00,BKN,,0.01,258.0,WeatherDisplay:10.37,2013-09-05 07:28:00,
2013-09-05 09:33:00,62.0,57.1,30.15,East,81,0.0,0.0,84,0.00,BKN,,0.01,216.0,WeatherDisplay:10.37,2013-09-05 07:33:00,
2013-09-05 09:38:00,62.3,57.7,30.15,East,81,0.0,0.0,85,0.00,FEW,,0.01,441.0,WeatherDisplay:10.37,2013-09-05 07:38:00,
2013-09-05 09:43:00,63.9,58.6,30.15,East,81,0.0,0.0,83,0.00,FEW,,0.01,425.0,WeatherDisplay:10.37,2013-09-05 07:43:00,
2013-09-05 09:48:00,64.2,58.9,30.15,East,81,0.0,0.0,83,0.00,FEW,,0.01,487.0,WeatherDisplay:10.37,2013-09-05 07:48:00,
2013-09-05 09:53:00,65.5,59.5,30.15,East,81,0.0,0.0,81,0.00,FEW,,0.01,482.0,WeatherDisplay:10.37,2013-09-05 07:53:00,
2013-09-05 09:58:00,65.8,60.5,30.15,East,82,0.0,0.0,83,0.00,FEW,,0.01,489.0,WeatherDisplay:10.37,2013-09-05 07:58:00,
2013-09-05 10:03:00,66.8,60.8,30.15,East,81,0.0,0.0,81,0.00,FEW,,0.01,506.0,WeatherDisplay:10.37,2013-09-05 08:03:00,
2013-09-05 10:08:00,66.3,59.9,30.15,East,81,0.0,0.0,80,0.00,FEW,,0.01,480.0,WeatherDisplay:10.37,2013-09-05 08:08:00,
2013-09-05 10:13:00,66.8,60.1,30.14,East,81,0.0,0.0,79,0.00,FEW,,0.01,522.0,WeatherDisplay:10.37,2013-09-05 08:13:00,
2013-09-05 10:18:00,66.8,60.4,30.14,East,81,0.0,0.0,80,0.00,FEW,,0.01,534.0,WeatherDisplay:10.37,2013-09-05 08:18:00,
2013-09-05 10:23:00,67.0,60.6,30.14,East,82,0.0,0.0,80,0.00,FEW,,0.01,533.0,WeatherDisplay:10.37,2013-09-05 08:23:00,
2013-09-05 10:28:00,66.6,60.2,30.14,East,81,0.0,0.0,80,0.00,SCT,,0.01,527.0,WeatherDisplay:10.37,2013-09-05 08:28:00,
2013-09-05 10:33:00,67.5,61.1,30.14,East,81,0.0,0.0,80,0.00,FEW,,0.01,554.0,WeatherDisplay:10.37,2013-09-05 08:33:00,
2013-09-05 10:38:00,67.2,60.8,30.14,East,81,0.0,0.0,80,0.00,FEW,,0.01,568.0,WeatherDisplay:10.37,2013-09-05 08:38:00,
2013-09-05 10:43:00,68.0,60.9,30.13,East,81,0.0,0.0,78,0.00,FEW,,0.01,580.0,WeatherDisplay:10.37,2013-09-05 08:43:00,
2013-09-05 10:48:00,69.5,62.0,30.13,NE,41,0.0,0.0,77,0.00,FEW,,0.01,582.0,WeatherDisplay:10.37,2013-09-05 08:48:00,
2013-09-05 10:53:00,69.1,61.2,30.13,NE,42,0.0,0.0,76,0.00,FEW,,0.01,589.0,WeatherDisplay:10.37,2013-09-05 08:53:00,
2013-09-05 10:58:00,68.9,61.8,30.13,NE,42,0.0,0.0,78,0.00,FEW,,0.01,603.0,WeatherDisplay:10.37,2013-09-05 08:58:00,
2013-09-05 11:03:00,69.5,62.3,30.13,NE,40,0.0,0.0,78,0.00,FEW,,0.01,596.0,WeatherDisplay:10.37,2013-09-05 09:03:00,
2013-09-05 11:08:00,70.0,62.5,30.13,NE,47,0.0,0.0,77,0.00,FEW,,0.01,615.0,WeatherDisplay:10.37,2013-09-05 09:08:00,
2013-09-05 11:13:00,69.4,62.2,30.12,NE,53,0.0,0.0,78,0.00,FEW,,0.01,622.0,WeatherDisplay:10.37,2013-09-05 09:13:00,
2013-09-05 11:18:00,70.7,63.1,30.13,NE,53,0.0,0.0,77,0.00,FEW,,0.01,635.0,WeatherDisplay:10.37,2013-09-05 09:18:00,
2013-09-05 11:23:00,70.8,62.9,30.12,NE,46,0.0,0.0,76,0.00,FEW,,0.01,642.0,WeatherDisplay:10.37,2013-09-05 09:23:00,
2013-09-05 11:28:00,70.3,62.7,30.12,NE,51,0.0,0.0,77,0.00,FEW,,0.01,638.0,WeatherDisplay:10.37,2013-09-05 09:28:00,
2013-09-05 11:33:00,70.9,62.6,30.12,ENE,65,0.0,0.0,75,0.00,FEW,,0.01,657.0,WeatherDisplay:10.37,2013-09-05 09:33:00,
2013-09-05 11:38:00,71.0,63.1,30.12,ENE,65,0.0,0.0,76,0.00,FEW,,0.01,649.0,WeatherDisplay:10.37,2013-09-05 09:38:00,
2013-09-05 11:43:00,71.1,62.4,30.12,NE,49,0.0,0.0,74,0.00,FEW,,0.01,652.0,WeatherDisplay:10.37,2013-09-05 09:43:00,
2013-09-05 11:48:00,70.6,61.9,30.12,NE,49,0.0,0.0,74,0.00,FEW,,0.01,654.0,WeatherDisplay:10.37,2013-09-05 09:48:00,
2013-09-05 11:53:00,71.6,63.3,30.12,NE,49,0.0,0.0,75,0.00,FEW,,0.01,659.0,WeatherDisplay:10.37,2013-09-05 09:53:00,
2013-09-05 11:58:00,72.1,63.0,30.12,NE,45,0.0,0.0,73,0.00,FEW,,0.01,670.0,WeatherDisplay:10.37,2013-09-05 09:58:00,
2013-09-05 12:03:00,72.4,62.9,30.12,NE,36,0.0,0.0,72,0.00,FEW,,0.01,677.0,WeatherDisplay:10.37,2013-09-05 10:03:00,
2013-09-05 12:08:00,72.8,63.6,30.12,NE,35,0.0,0.0,73,0.00,FEW,,0.01,686.0,WeatherDisplay:10.37,2013-09-05 10:08:00,
2013-09-05 12:13:00,73.2,63.2,30.11,NE,34,0.0,0.0,71,0.00,FEW,,0.01,682.0,WeatherDisplay:10.37,2013-09-05 10:13:00,
2013-09-05 12:18:00,72.9,62.5,30.11,East,84,7.0,7.0,70,0.00,FEW,,0.01,696.0,WeatherDisplay:10.37,2013-09-05 10:18:00,
2013-09-05 12:23:00,72.5,62.6,30.11,NE,44,6.0,6.0,71,0.00,FEW,,0.01,694.0,WeatherDisplay:10.37,2013-09-05 10:23:00,
2013-09-05 12:28:00,72.1,62.2,30.11,ENE,58,3.5,3.5,71,0.00,FEW,,0.01,698.0,WeatherDisplay:10.37,2013-09-05 10:28:00,
2013-09-05 12:33:00,71.1,61.6,30.11,ENE,72,2.3,2.3,72,0.00,OVC,,0.01,241.0,WeatherDisplay:10.37,2013-09-05 10:33:00,
2013-09-05 12:38:00,72.2,61.9,30.11,ENE,72,4.6,4.6,70,0.00,FEW,,0.01,735.0,WeatherDisplay:10.37,2013-09-05 10:38:00,
2013-09-05 12:43:00,71.9,61.6,30.11,ENE,63,5.8,5.8,70,0.00,OVC,,0.01,253.0,WeatherDisplay:10.37,2013-09-05 10:43:00,
2013-09-05 12:48:00,71.6,60.9,30.11,NE,45,5.8,5.8,69,0.00,SCT,,0.01,512.0,WeatherDisplay:10.37,2013-09-05 10:48:00,
2013-09-05 12:53:00,72.6,60.6,30.11,East,79,3.5,3.5,66,0.00,CLR,,0.01,793.0,WeatherDisplay:10.37,2013-09-05 10:53:00,
2013-09-05 12:58:00,73.1,61.9,30.11,NE,49,6.0,6.0,68,0.00,FEW,,0.01,763.0,WeatherDisplay:10.37,2013-09-05 10:58:00,
2013-09-05 13:03:00,72.5,61.7,30.10,East,83,4.0,4.0,69,0.00,SCT,,0.01,610.0,WeatherDisplay:10.37,2013-09-05 11:03:00,
2013-09-05 13:08:00,73.8,63.0,30.10,NE,46,2.3,2.3,69,0.00,FEW,,0.01,745.0,WeatherDisplay:10.37,2013-09-05 11:08:00,
2013-09-05 13:13:00,73.6,61.5,30.10,NNE,26,4.6,4.6,66,0.00,FEW,,0.01,742.0,WeatherDisplay:10.37,2013-09-05 11:13:00,
2013-09-05 13:18:00,73.2,60.7,30.10,NE,49,5.8,5.8,65,0.00,OVC,,0.01,246.0,WeatherDisplay:10.37,2013-09-05 11:18:00,
2013-09-05 13:23:00,72.3,60.3,30.10,ENE,76,3.5,3.5,66,0.00,FEW,,0.01,656.0,WeatherDisplay:10.37,2013-09-05 11:23:00,
2013-09-05 13:28:00,73.4,62.2,30.10,ESE,103,4.0,4.0,68,0.00,FEW,,0.01,761.0,WeatherDisplay:10.37,2013-09-05 11:28:00,
2013-09-05 13:33:00,75.0,62.9,30.10,NNE,29,5.0,5.0,66,0.00,FEW,,0.01,759.0,WeatherDisplay:10.37,2013-09-05 11:33:00,
2013-09-05 13:38:00,75.0,60.6,30.09,ENE,57,5.0,5.0,61,0.00,FEW,,0.01,780.0,WeatherDisplay:10.37,2013-09-05 11:38:00,
2013-09-05 13:43:00,74.2,61.7,30.09,NE,49,5.8,5.8,65,0.00,FEW,,0.01,738.0,WeatherDisplay:10.37,2013-09-05 11:43:00,
2013-09-05 13:48:00,74.3,60.9,30.09,East,96,5.8,5.8,63,0.00,FEW,,0.01,733.0,WeatherDisplay:10.37,2013-09-05 11:48:00,
2013-09-05 13:53:00,74.6,60.3,30.09,East,96,3.5,3.5,61,0.00,FEW,,0.01,693.0,WeatherDisplay:10.37,2013-09-05 11:53:00,
2013-09-05 13:58:00,74.0,59.7,30.09,East,101,3.5,3.5,61,0.00,FEW,,0.01,712.0,WeatherDisplay:10.37,2013-09-05 11:58:00,
2013-09-05 14:03:00,74.6,60.7,30.09,East,97,6.0,6.0,62,0.00,FEW,,0.01,731.0,WeatherDisplay:10.37,2013-09-05 12:03:00,
2013-09-05 14:08:00,74.4,61.9,30.09,East,97,3.5,3.5,65,0.00,FEW,,0.01,737.0,WeatherDisplay:10.37,2013-09-05 12:08:00,
2013-09-05 14:13:00,76.0,61.6,30.09,ENE,57,5.8,5.8,61,0.00,FEW,,0.01,740.0,WeatherDisplay:10.37,2013-09-05 12:13:00,
2013-09-05 14:18:00,74.7,61.3,30.09,NE,54,4.6,4.6,63,0.00,FEW,,0.01,719.0,WeatherDisplay:10.37,2013-09-05 12:18:00,
2013-09-05 14:23:00,73.1,59.3,30.09,NE,55,3.5,3.5,62,0.00,OVC,,0.01,178.0,WeatherDisplay:10.37,2013-09-05 12:23:00,
2013-09-05 14:28:00,73.2,59.8,30.08,NE,55,3.5,3.5,63,0.00,OVC,,0.01,181.0,WeatherDisplay:10.37,2013-09-05 12:28:00,
2013-09-05 14:33:00,72.9,60.4,30.08,NE,55,3.5,3.5,65,0.00,FEW,,0.01,707.0,WeatherDisplay:10.37,2013-09-05 12:33:00,
2013-09-05 14:38:00,72.9,60.4,30.08,NE,55,5.0,5.0,65,0.00,OVC,,0.01,141.0,WeatherDisplay:10.37,2013-09-05 12:38:00,
2013-09-05 14:43:00,72.1,58.8,30.08,NE,52,5.0,5.0,63,0.00,OVC,,0.01,163.0,WeatherDisplay:10.37,2013-09-05 12:43:00,
2013-09-05 14:48:00,72.5,59.6,30.08,NE,53,4.0,4.0,64,0.00,BKN,,0.01,120.0,WeatherDisplay:10.37,2013-09-05 12:48:00,
2013-09-05 14:53:00,71.7,59.3,30.08,NE,53,3.0,3.0,65,0.00,OVC,,0.01,128.0,WeatherDisplay:10.37,2013-09-05 12:53:00,
2013-09-05 14:58:00,72.1,59.7,30.08,NE,53,3.5,3.5,65,0.00,OVC,,0.01,192.0,WeatherDisplay:10.37,2013-09-05 12:58:00,
2013-09-05 15:03:00,73.2,61.6,30.07,NE,53,4.0,4.0,67,0.00,FEW,,0.01,621.0,WeatherDisplay:10.37,2013-09-05 13:03:00,
2013-09-05 15:08:00,74.6,60.7,30.07,NE,42,4.0,4.0,62,0.00,FEW,,0.01,584.0,WeatherDisplay:10.37,2013-09-05 13:08:00,
2013-09-05 15:13:00,73.9,59.1,30.07,NE,49,4.6,4.6,60,0.00,OVC,,0.01,192.0,WeatherDisplay:10.37,2013-09-05 13:13:00,
2013-09-05 15:18:00,74.3,59.5,30.07,NE,44,6.0,6.0,60,0.00,SCT,,0.01,527.0,WeatherDisplay:10.37,2013-09-05 13:18:00,
2013-09-05 15:23:00,72.9,58.2,30.07,NE,35,4.0,4.0,60,0.00,OVC,,0.01,104.0,WeatherDisplay:10.37,2013-09-05 13:23:00,
2013-09-05 15:28:00,73.9,59.6,30.07,NE,45,5.0,5.0,61,0.00,FEW,,0.01,557.0,WeatherDisplay:10.37,2013-09-05 13:28:00,
2013-09-05 15:33:00,74.6,60.3,30.07,NE,37,6.0,6.0,61,0.00,FEW,,0.01,538.0,WeatherDisplay:10.37,2013-09-05 13:33:00,
2013-09-05 15:38:00,73.8,58.6,30.07,NE,50,6.0,6.0,59,0.00,OVC,,0.01,176.0,WeatherDisplay:10.37,2013-09-05 13:38:00,
2013-09-05 15:43:00,73.4,59.1,30.06,ENE,71,6.0,6.0,61,0.00,OVC,,0.01,98.0,WeatherDisplay:10.37,2013-09-05 13:43:00,
2013-09-05 15:48:00,74.3,60.0,30.06,ENE,69,5.0,5.0,61,0.00,FEW,,0.01,503.0,WeatherDisplay:10.37,2013-09-05 13:48:00,
2013-09-05 15:53:00,74.2,58.5,30.06,ENE,59,6.9,6.9,58,0.00,FEW,,0.01,499.0,WeatherDisplay:10.37,2013-09-05 13:53:00,
2013-09-05 15:58:00,75.2,59.4,30.06,NE,55,8.0,8.0,58,0.00,SCT,,0.01,401.0,WeatherDisplay:10.37,2013-09-05 13:58:00,
2013-09-05 16:03:00,74.8,60.0,30.06,East,82,4.6,4.6,60,0.00,SCT,,0.01,468.0,WeatherDisplay:10.37,2013-09-05 14:03:00,
2013-09-05 16:08:00,74.9,60.1,30.06,NE,52,6.0,6.0,60,0.00,FEW,,0.01,454.0,WeatherDisplay:10.37,2013-09-05 14:08:00,
2013-09-05 16:13:00,75.2,60.8,30.06,North,360,4.6,4.6,61,0.00,SCT,,0.01,396.0,WeatherDisplay:10.37,2013-09-05 14:13:00,
2013-09-05 16:18:00,74.8,59.0,30.06,NE,34,5.0,5.0,58,0.00,SCT,,0.01,422.0,WeatherDisplay:10.37,2013-09-05 14:18:00,
2013-09-05 16:23:00,74.9,58.6,30.06,ENE,75,5.8,5.8,57,0.00,FEW,,0.01,399.0,WeatherDisplay:10.37,2013-09-05 14:23:00,
2013-09-05 16:28:00,74.5,58.3,30.06,ENE,76,3.5,3.5,57,0.00,SCT,,0.01,385.0,WeatherDisplay:10.37,2013-09-05 14:28:00,
2013-09-05 16:33:00,74.8,59.0,30.05,ENE,77,4.0,4.0,58,0.00,SCT,,0.01,378.0,WeatherDisplay:10.37,2013-09-05 14:33:00,
2013-09-05 16:38:00,75.0,58.2,30.05,ENE,76,3.5,3.5,56,0.00,FEW,,0.01,383.0,WeatherDisplay:10.37,2013-09-05 14:38:00,
2013-09-05 16:43:00,75.1,58.3,30.05,NE,40,6.9,6.9,56,0.00,SCT,,0.01,366.0,WeatherDisplay:10.37,2013-09-05 14:43:00,
2013-09-05 16:48:00,74.9,58.6,30.05,ENE,67,4.6,4.6,57,0.00,SCT,,0.01,348.0,WeatherDisplay:10.37,2013-09-05 14:48:00,
2013-09-05 16:53:00,75.3,58.5,30.05,East,80,5.0,5.0,56,0.00,SCT,,0.01,332.0,WeatherDisplay:10.37,2013-09-05 14:53:00,
2013-09-05 16:58:00,74.9,57.6,30.05,East,85,6.9,6.9,55,0.00,SCT,,0.01,322.0,WeatherDisplay:10.37,2013-09-05 14:58:00,
2013-09-05 17:03:00,74.6,57.9,30.05,East,83,5.0,5.0,56,0.00,SCT,,0.01,311.0,WeatherDisplay:10.37,2013-09-05 15:03:00,
2013-09-05 17:08:00,74.5,58.8,30.05,ENE,75,3.5,3.5,58,0.00,SCT,,0.01,302.0,WeatherDisplay:10.37,2013-09-05 15:08:00,
2013-09-05 17:13:00,74.6,57.4,30.04,ENE,72,3.5,3.5,55,0.00,SCT,,0.01,290.0,WeatherDisplay:10.37,2013-09-05 15:13:00,
2013-09-05 17:18:00,74.6,57.9,30.04,ENE,77,3.5,3.5,56,0.00,SCT,,0.01,278.0,WeatherDisplay:10.37,2013-09-05 15:18:00,
2013-09-05 17:23:00,74.5,57.3,30.04,East,82,5.8,5.8,55,0.00,SCT,,0.01,267.0,WeatherDisplay:10.37,2013-09-05 15:23:00,
2013-09-05 17:28:00,74.3,57.6,30.04,East,86,4.0,4.0,56,0.00,SCT,,0.01,253.0,WeatherDisplay:10.37,2013-09-05 15:28:00,
2013-09-05 17:33:00,74.2,57.5,30.04,NE,49,6.9,6.9,56,0.00,SCT,,0.01,237.0,WeatherDisplay:10.37,2013-09-05 15:33:00,
2013-09-05 17:38:00,74.2,57.5,30.04,ENE,69,3.5,3.5,56,0.00,SCT,,0.01,227.0,WeatherDisplay:10.37,2013-09-05 15:38:00,
2013-09-05 17:43:00,74.3,58.1,30.04,ENE,71,5.8,5.8,57,0.00,SCT,,0.01,213.0,WeatherDisplay:10.37,2013-09-05 15:43:00,
2013-09-05 17:48:00,73.9,57.7,30.04,ENE,77,4.0,4.0,57,0.00,SCT,,0.01,199.0,WeatherDisplay:10.37,2013-09-05 15:48:00,
2013-09-05 17:53:00,73.7,58.5,30.03,ENE,77,3.0,3.0,59,0.00,SCT,,0.01,185.0,WeatherDisplay:10.37,2013-09-05 15:53:00,
2013-09-05 17:58:00,73.4,58.7,30.03,ENE,76,4.0,4.0,60,0.00,SCT,,0.01,172.0,WeatherDisplay:10.37,2013-09-05 15:58:00,
2013-09-05 18:03:00,73.3,58.1,30.03,NE,51,4.0,4.0,59,0.00,SCT,,0.01,156.0,WeatherDisplay:10.37,2013-09-05 16:03:00,
2013-09-05 18:08:00,73.0,57.8,30.03,NE,51,4.0,4.0,59,0.00,SCT,,0.01,139.0,WeatherDisplay:10.37,2013-09-05 16:08:00,
2013-09-05 18:13:00,72.9,58.2,30.03,NE,51,4.0,4.0,60,0.00,SCT,,0.01,130.0,WeatherDisplay:10.37,2013-09-05 16:13:00,
2013-09-05 18:18:00,72.8,57.6,30.03,NE,51,4.0,4.0,59,0.00,BKN,,0.01,116.0,WeatherDisplay:10.37,2013-09-05 16:18:00,
2013-09-05 18:23:00,72.4,58.2,30.03,NE,51,3.5,3.5,61,0.00,BKN,,0.01,102.0,WeatherDisplay:10.37,2013-09-05 16:23:00,
2013-09-05 18:28:00,72.3,58.1,30.03,NE,51,3.5,3.5,61,0.00,BKN,,0.01,90.0,WeatherDisplay:10.37,2013-09-05 16:28:00,
2013-09-05 18:33:00,72.1,57.9,30.03,NE,51,3.5,3.5,61,0.00,BKN,,0.01,76.0,WeatherDisplay:10.37,2013-09-05 16:33:00,
2013-09-05 18:38:00,71.6,58.3,30.03,NE,51,3.5,3.5,63,0.00,BKN,,0.01,63.0,WeatherDisplay:10.37,2013-09-05 16:38:00,
2013-09-05 18:43:00,71.4,58.6,30.03,NE,51,2.3,2.3,64,0.00,OVC,,0.01,54.0,WeatherDisplay:10.37,2013-09-05 16:43:00,
2013-09-05 18:48:00,70.9,59.0,30.03,NE,51,2.3,2.3,66,0.00,OVC,,0.01,30.0,WeatherDisplay:10.37,2013-09-05 16:48:00,
2013-09-05 18:53:00,70.2,59.1,30.03,NE,51,3.5,3.5,68,0.00,OVC,,0.01,28.0,WeatherDisplay:10.37,2013-09-05 16:53:00,
2013-09-05 18:58:00,69.5,58.9,30.02,NE,51,2.3,2.3,69,0.00,OVC,,0.01,25.0,WeatherDisplay:10.37,2013-09-05 16:58:00,
2013-09-05 19:03:00,68.9,59.1,30.02,NE,51,2.3,2.3,71,0.00,OVC,,0.01,23.0,WeatherDisplay:10.37,2013-09-05 17:03:00,
2013-09-05 19:08:00,68.4,58.6,30.02,NE,51,2.3,2.3,71,0.00,OVC,,0.01,19.0,WeatherDisplay:10.37,2013-09-05 17:08:00,
2013-09-05 19:13:00,68.0,58.6,30.02,NE,51,2.3,2.3,72,0.00,OVC,,0.01,16.0,WeatherDisplay:10.37,2013-09-05 17:13:00,
2013-09-05 19:18:00,67.6,59.0,30.02,NE,51,2.3,2.3,74,0.00,OVC,,0.01,12.0,WeatherDisplay:10.37,2013-09-05 17:18:00,
2013-09-05 19:23:00,67.7,58.0,30.02,NE,51,2.0,2.0,71,0.00,OVC,,0.01,11.0,WeatherDisplay:10.37,2013-09-05 17:23:00,
2013-09-05 19:28:00,67.8,58.4,30.02,NE,51,2.0,2.0,72,0.00,OVC,,0.01,9.0,WeatherDisplay:10.37,2013-09-05 17:28:00,
2013-09-05 19:33:00,67.5,57.8,30.02,NE,51,2.3,2.3,71,0.00,OVC,,0.01,5.0,WeatherDisplay:10.37,2013-09-05 17:33:00,
2013-09-05 19:38:00,67.4,57.7,30.02,NE,51,2.3,2.3,71,0.00,SCT,,0.01,0.0,WeatherDisplay:10.37,2013-09-05 17:38:00,
2013-09-05 19:43:00,67.4,57.7,30.02,NE,51,3.0,3.0,71,0.00,OVC,,0.01,0.0,WeatherDisplay:10.37,2013-09-05 17:43:00,
2013-09-05 19:48:00,67.2,57.9,30.02,NE,51,2.3,2.3,72,0.00,OVC,,0.01,0.0,WeatherDisplay:10.37,2013-09-05 17:48:00,
2013-09-05 19:53:00,66.5,57.6,30.02,NE,51,2.3,2.3,73,0.00,OVC,,0.01,0.0,WeatherDisplay:10.37,2013-09-05 17:53:00,
2013-09-05 19:58:00,65.5,57.4,30.02,NE,51,1.2,1.2,75,0.00,OVC,,0.01,0.0,WeatherDisplay:10.37,2013-09-05 17:58:00,
2013-09-05 20:03:00,64.9,57.5,30.02,NE,51,2.3,2.3,77,0.00,CLR,,0.01,0.0,WeatherDisplay:10.37,2013-09-05 18:03:00,
2013-09-05 20:08:00,64.6,57.2,30.02,NE,51,1.2,1.2,77,0.00,CLR,,0.01,0.0,WeatherDisplay:10.37,2013-09-05 18:08:00,
2013-09-05 20:13:00,64.2,56.8,30.02,NE,51,1.2,0.0,77,0.00,CLR,,0.01,0.0,WeatherDisplay:10.37,2013-09-05 18:13:00,
2013-09-05 20:18:00,63.7,57.1,30.02,NE,51,0.0,0.0,79,0.00,CLR,,0.01,0.0,WeatherDisplay:10.37,2013-09-05 18:18:00,
2013-09-05 20:23:00,63.3,57.0,30.03,NE,51,1.2,0.0,80,0.00,CLR,,0.01,0.0,WeatherDisplay:10.37,2013-09-05 18:23:00,
2013-09-05 20:28:00,62.9,57.0,30.03,NE,51,0.0,0.0,81,0.00,CLR,,0.01,0.0,WeatherDisplay:10.37,2013-09-05 18:28:00,
2013-09-05 20:33:00,63.0,57.1,30.03,NE,51,0.0,0.0,81,0.00,CLR,,0.01,0.0,WeatherDisplay:10.37,2013-09-05 18:33:00,
2013-09-05 20:38:00,62.6,56.7,30.03,NE,51,0.0,0.0,81,0.00,CLR,,0.01,0.0,WeatherDisplay:10.37,2013-09-05 18:38:00,
2013-09-05 20:43:00,62.2,56.3,30.03,NE,51,0.0,0.0,81,0.00,CLR,,0.01,0.0,WeatherDisplay:10.37,2013-09-05 18:43:00,
2013-09-05 20:48:00,61.9,56.3,30.03,NE,51,1.2,1.2,82,0.00,CLR,,0.01,0.0,WeatherDisplay:10.37,2013-09-05 18:48:00,
2013-09-05 20:53:00,61.9,56.3,30.03,NE,51,1.0,0.0,82,0.00,CLR,,0.01,0.0,WeatherDisplay:10.37,2013-09-05 18:53:00,
2013-09-05 20:58:00,61.5,56.0,30.03,NE,51,2.3,2.3,82,0.00,CLR,,0.01,0.0,WeatherDisplay:10.37,2013-09-05 18:58:00,
2013-09-05 21:03:00,61.3,56.1,30.03,NE,51,1.2,1.2,83,0.00,CLR,,0.01,0.0,WeatherDisplay:10.37,2013-09-05 19:03:00,
2013-09-05 21:08:00,61.3,56.1,30.03,NE,51,1.2,1.2,83,0.00,CLR,,0.01,0.0,WeatherDisplay:10.37,2013-09-05 19:08:00,
2013-09-05 21:13:00,61.2,56.0,30.03,NE,51,1.2,1.2,83,0.00,CLR,,0.01,0.0,WeatherDisplay:10.37,2013-09-05 19:13:00,
2013-09-05 21:18:00,60.9,55.7,30.03,NE,51,1.2,1.2,83,0.00,CLR,,0.01,0.0,WeatherDisplay:10.37,2013-09-05 19:18:00,
2013-09-05 21:23:00,60.5,55.6,30.03,NE,51,1.2,1.2,84,0.00,CLR,,0.01,0.0,WeatherDisplay:10.37,2013-09-05 19:23:00,
2013-09-05 21:28:00,60.5,55.6,30.03,NE,51,1.2,1.2,84,0.00,CLR,,0.01,0.0,WeatherDisplay:10.37,2013-09-05 19:28:00,
2013-09-05 21:33:00,60.5,55.6,30.03,NE,51,1.2,1.2,84,0.00,CLR,,0.01,0.0,WeatherDisplay:10.37,2013-09-05 19:33:00,
2013-09-05 21:38:00,60.5,55.3,30.03,NE,51,1.0,0.0,83,0.00,CLR,,0.01,0.0,WeatherDisplay:10.37,2013-09-05 19:38:00,
2013-09-05 21:43:00,60.5,55.6,30.03,NE,51,1.2,1.2,84,0.00,CLR,,0.01,0.0,WeatherDisplay:10.37,2013-09-05 19:43:00,
2013-09-05 21:48:00,60.3,55.4,30.03,NE,51,1.2,1.2,84,0.00,CLR,,0.01,0.0,WeatherDisplay:10.37,2013-09-05 19:48:00,
2013-09-05 21:53:00,59.3,54.8,30.04,NE,51,2.3,2.3,85,0.00,CLR,,0.01,0.0,WeatherDisplay:10.37,2013-09-05 19:53:00,
2013-09-05 21:58:00,60.2,55.3,30.03,NE,51,2.3,2.3,84,0.00,CLR,,0.01,0.0,WeatherDisplay:10.37,2013-09-05 19:58:00,
2013-09-05 22:03:00,61.3,55.8,30.03,NE,51,3.5,3.5,82,0.00,CLR,,0.01,0.0,WeatherDisplay:10.37,2013-09-05 20:03:00,
2013-09-05 22:08:00,62.1,56.2,30.03,NE,51,4.0,4.0,81,0.00,CLR,,0.01,0.0,WeatherDisplay:10.37,2013-09-05 20:08:00,
2013-09-05 22:13:00,62.3,56.0,30.04,NE,54,4.0,4.0,80,0.00,CLR,,0.01,0.0,WeatherDisplay:10.37,2013-09-05 20:13:00,
2013-09-05 22:18:00,62.2,56.0,30.04,NE,54,3.5,3.5,80,0.00,CLR,,0.01,0.0,WeatherDisplay:10.37,2013-09-05 20:18:00,
2013-09-05 22:23:00,62.0,55.8,30.04,ENE,57,4.0,4.0,80,0.00,CLR,,0.01,0.0,WeatherDisplay:10.37,2013-09-05 20:23:00,
2013-09-05 22:28:00,61.9,55.7,30.04,ENE,57,4.0,4.0,80,0.00,CLR,,0.01,0.0,WeatherDisplay:10.37,2013-09-05 20:28:00,
2013-09-05 22:33:00,61.7,55.8,30.04,ENE,57,3.5,3.5,81,0.00,CLR,,0.01,0.0,WeatherDisplay:10.37,2013-09-05 20:33:00,
2013-09-05 22:38:00,61.5,55.6,30.04,ENE,68,3.5,3.5,81,0.00,CLR,,0.01,0.0,WeatherDisplay:10.37,2013-09-05 20:38:00,
2013-09-05 22:43:00,61.5,55.6,30.04,ENE,68,3.5,3.5,81,0.00,CLR,,0.01,0.0,WeatherDisplay:10.37,2013-09-05 20:43:00,
2013-09-05 22:48:00,61.3,55.8,30.04,ENE,69,3.0,3.0,82,0.00,CLR,,0.01,0.0,WeatherDisplay:10.37,2013-09-05 20:48:00,
2013-09-05 22:53:00,61.2,55.7,30.04,ENE,68,3.5,3.5,82,0.00,CLR,,0.01,0.0,WeatherDisplay:10.37,2013-09-05 20:53:00,
2013-09-05 22:58:00,61.0,55.5,30.04,ENE,68,3.5,3.5,82,0.00,CLR,,0.01,0.0,WeatherDisplay:10.37,2013-09-05 20:58:00,
2013-09-05 23:03:00,60.8,55.3,30.03,ENE,69,2.3,2.3,82,0.00,CLR,,0.01,0.0,WeatherDisplay:10.37,2013-09-05 21:03:00,
2013-09-05 23:08:00,60.7,55.5,30.03,ENE,69,3.5,3.5,83,0.00,CLR,,0.01,0.0,WeatherDisplay:10.37,2013-09-05 21:08:00,
2013-09-05 23:13:00,60.4,55.2,30.04,ENE,69,3.0,3.0,83,0.00,CLR,,0.01,0.0,WeatherDisplay:10.37,2013-09-05 21:13:00,
2013-09-05 23:18:00,60.3,55.1,30.03,ENE,69,3.0,3.0,83,0.00,CLR,,0.01,0.0,WeatherDisplay:10.37,2013-09-05 21:18:00,
2013-09-05 23:23:00,60.2,55.0,30.03,ENE,69,3.0,3.0,83,0.00,CLR,,0.01,0.0,WeatherDisplay:10.37,2013-09-05 21:23:00,
2013-09-05 23:28:00,60.0,54.8,30.03,ENE,69,2.3,2.3,83,0.00,CLR,,0.01,0.0,WeatherDisplay:10.37,2013-09-05 21:28:00,
2013-09-05 23:33:00,59.9,55.1,30.03,ENE,69,3.5,3.5,84,0.00,CLR,,0.01,0.0,WeatherDisplay:10.37,2013-09-05 21:33:00,
2013-09-05 23:38:00,59.7,54.9,30.03,ENE,69,3.5,3.5,84,0.00,CLR,,0.01,0.0,WeatherDisplay:10.37,2013-09-05 21:38:00,
2013-09-05 23:43:00,59.5,54.7,30.03,ENE,72,4.0,4.0,84,0.00,CLR,,0.01,0.0,WeatherDisplay:10.37,2013-09-05 21:43:00,
2013-09-05 23:48:00,59.6,54.8,30.03,ENE,72,3.5,3.5,84,0.00,CLR,,0.01,0.0,WeatherDisplay:10.37,2013-09-05 21:48:00,
2013-09-05 23:53:00,59.5,54.7,30.02,ENE,73,3.5,3.5,84,0.00,CLR,,0.01,0.0,WeatherDisplay:10.37,2013-09-05 21:53:00,
2013-09-05 23:58:00,59.4,54.6,30.02,ENE,73,3.5,3.5,84,0.00,CLR,,0.01,0.0,WeatherDisplay:10.37,2013-09-05 21:58:00,